Date,TemperatureHighF,TemperatureAvgF,TemperatureLowF,DewpointHighF,DewpointAvgF,DewpointLowF,HumidityHigh,HumidityAvg,HumidityLow,PressureMaxIn,PressureMinIn,WindSpeedMaxMPH,WindSpeedAvgMPH,GustSpeedMaxMPH,PrecipitationSumIn
2013-1-1,30,23,14,23,13,3,88,68,46,29.97,29.81,12,3,0,0.00
2013-1-2,32,25,19,24,20,17,98,84,65,30.11,29.91,8,2,0,0.01
2013-1-3,30,27,21,29,25,21,98,92,78,30.09,29.85,6,3,0,0.00
2013-1-4,32,30,28,30,26,24,98,84,75,29.94,29.78,14,6,0,0.00
2013-1-5,36,32,30,32,30,26,98,91,67,30.19,29.93,6,2,0,0.00
2013-1-6,36,33,27,35,32,23,98,93,74,30.07,29.78,9,3,0,0.07
2013-1-7,32,26,16,32,24,15,98,93,83,30.31,30.03,7,2,0,0.00
2013-1-8,37,32,28,32,30,27,98,90,77,30.22,30.02,7,2,0,0.00
2013-1-9,43,39,28,38,31,8,96,74,39,30.22,29.85,19,5,0,0.00
2013-1-10,46,37,34,34,32,28,98,81,62,56.12,30.28,9,1,0,0.00
2013-1-11,45,39,36,35,-12,-54,98,29,1,30.31,29.78,6,1,0,0.17
2013-1-12,59,50,43,58,9,-51,98,51,1,29.89,29.80,6,2,0,0.01
2013-1-13,55,47,41,52,-12,-49,98,32,1,29.87,29.65,5,1,0,1.16
2013-1-14,41,30,27,29,22,-52,91,77,1,30.31,29.74,10,2,0,0.05
2013-1-15,34,29,27,26,21,18,98,71,54,30.32,30.10,8,1,0,0.00
2013-1-16,37,31,25,29,25,21,98,80,52,30.08,29.66,7,2,0,0.00
2013-1-17,34,21,12,31,16,8,94,80,63,30.13,29.74,11,3,0,0.00
2013-1-18,30,24,12,26,17,9,98,75,58,30.33,29.87,6,3,0,0.00
2013-1-19,43,40,32,40,33,26,98,77,69,29.87,29.41,10,5,0,0.00
2013-1-20,43,27,16,39,20,9,98,76,53,29.99,29.32,22,6,0,0.00
2013-1-21,23,17,10,13,7,1,83,66,50,29.97,29.75,7,3,0,0.00
2013-1-22,14,7,1,6,2,-2,89,78,61,30.09,29.80,10,3,0,0.00
2013-1-23,16,6,-6,7,-1,-12,88,72,62,30.13,29.99,8,2,0,0.00
2013-1-24,16,9,3,8,1,-4,93,71,51,30.45,29.98,10,3,0,0.00
2013-1-25,14,14,14,14,14,14,98,98,98,30.00,30.00,3,1,0,0.00
2013-1-26,32,22,12,20,16,12,98,81,56,30.32,30.00,3,0,0,0.01
2013-1-27,32,22,10,26,19,8,98,87,66,30.47,30.24,5,1,0,0.01
2013-1-28,36,32,28,28,-31,-59,98,26,1,30.24,29.74,3,0,0,0.43
2013-1-29,39,35,34,-54,-56,-57,1,1,1,29.95,29.56,6,0,0,0.90
2013-1-30,54,50,39,29,-32,-54,38,7,1,29.54,28.90,7,2,0,0.15
2013-1-31,28,24,19,23,16,10,85,71,55,29.61,29.21,11,4,0,0.01
2013-2-1,21,18,16,13,10,6,82,71,56,30.07,29.61,6,2,0,0.00
2013-2-2,25,18,10,14,11,7,85,75,61,30.06,29.86,8,2,0,0.00
2013-2-3,27,15,5,15,8,1,85,74,48,29.88,29.70,4,1,0,0.00
2013-2-4,23,18,9,14,9,4,83,70,57,29.86,29.75,7,2,0,0.65
2013-2-5,27,24,21,20,13,9,83,63,50,29.85,29.74,5,2,0,0.00
2013-2-6,28,22,16,20,10,4,83,60,42,30.28,29.76,9,2,0,0.00
2013-2-7,30,22,18,24,10,-9,83,63,23,30.28,30.02,9,2,0,0.00
2013-2-8,19,17,14,10,8,4,76,69,50,30.10,29.80,13,7,0,0.00
2013-2-9,34,18,10,11,-24,-70,83,41,1,30.32,30.11,10,2,0,0.68
2013-2-10,34,22,5,33,-3,-66,98,53,1,30.29,29.80,8,2,0,0.04
2013-2-11,43,37,32,37,20,-52,98,65,1,29.79,29.42,10,5,0,0.08
2013-2-12,34,32,30,28,25,23,81,76,64,29.86,29.58,9,3,0,0.00
2013-2-13,36,30,23,24,22,19,89,72,57,29.76,29.65,5,2,0,0.00
2013-2-14,34,30,23,33,29,20,98,94,86,29.76,29.62,5,0,0,0.17
2013-2-15,34,27,19,33,23,16,98,84,55,30.00,29.61,9,2,0,0.02
2013-2-16,32,23,14,32,22,14,98,97,83,29.94,29.86,4,1,0,0.00
2013-2-17,21,12,3,14,5,1,98,74,50,30.12,29.88,10,4,0,0.00
2013-2-18,32,26,3,32,22,3,98,83,59,30.13,29.75,5,1,0,0.07
2013-2-19,37,32,23,37,31,22,98,98,98,29.74,29.41,8,4,0,0.97
2013-2-20,25,21,19,22,17,14,98,85,67,29.99,29.63,12,5,0,0.00
2013-2-21,30,23,18,22,18,11,98,82,64,30.33,29.99,9,4,0,1.78
2013-2-22,32,31,18,32,28,3,98,92,29,30.29,29.85,11,4,0,0.00
2013-2-23,36,33,28,35,30,-2,98,92,22,29.85,29.75,5,1,0,0.17
2013-2-24,36,33,28,35,32,28,98,98,97,30.01,29.75,7,2,0,0.05
2013-2-25,37,34,32,37,33,32,98,96,88,30.14,30.02,4,0,0,0.71
2013-2-26,39,35,30,39,35,30,98,98,98,30.12,29.70,13,5,0,0.04
2013-2-27,36,33,32,35,33,32,98,98,98,29.65,29.48,8,2,0,0.13
2013-2-28,37,34,30,37,33,30,98,98,80,29.72,29.47,10,4,0,0.51
2013-3-1,30,26,25,30,26,24,98,98,98,29.88,29.71,11,7,0,0.00
2013-3-2,27,24,23,26,23,22,98,98,98,29.87,29.85,9,6,0,0.00
2013-3-3,36,25,19,28,23,-56,98,96,93,29.86,29.79,9,4,0,0.00
2013-3-4,34,27,21,32,26,21,98,97,85,30.00,29.85,8,4,0,0.00
2013-3-5,36,30,19,34,29,19,98,96,84,30.01,29.89,9,3,0,0.02
2013-3-6,41,36,28,40,36,28,98,98,98,30.10,29.89,6,1,0,0.00
2013-3-7,39,36,34,39,35,33,98,98,96,30.23,30.10,8,2,0,0.03
2013-3-8,45,38,30,40,35,30,98,89,66,30.34,30.30,8,3,0,0.06
2013-3-9,48,39,30,42,35,30,98,86,61,30.33,30.10,3,0,0,0.00
2013-3-10,59,49,36,45,41,35,98,76,52,30.11,29.86,5,1,0,0.00
2013-3-11,48,44,39,48,43,39,98,98,98,29.86,29.51,5,1,0,0.48
2013-3-12,43,36,32,42,36,32,98,98,98,29.79,29.54,5,2,0,0.00
2013-3-13,36,29,21,35,26,18,98,90,59,29.92,29.73,13,4,0,0.00
2013-3-14,34,28,21,22,14,4,98,59,32,82.78,29.92,12,4,0,0.87
2013-3-15,43,32,25,37,28,22,98,85,57,29.95,29.65,11,3,0,0.87
2013-3-16,30,26,21,28,22,15,99,87,65,29.90,29.78,5,2,0,0.00
2013-3-17,32,27,19,22,16,12,98,66,50,30.26,29.91,7,3,0,1.22
2013-3-18,32,31,19,32,25,13,98,81,54,30.24,29.53,14,6,0,0.00
2013-3-19,34,30,25,33,29,24,98,98,98,29.72,29.52,7,3,0,0.15
2013-3-20,34,27,19,32,24,18,98,87,53,29.75,29.70,7,2,0,0.00
2013-3-21,36,29,19,33,28,19,98,97,77,29.72,29.59,7,3,0,0.04
2013-3-22,37,32,27,33,30,26,98,93,70,29.85,29.67,12,4,0,0.21
2013-3-23,41,35,28,32,28,24,98,78,57,29.96,29.84,11,4,0,0.59
2013-3-24,41,34,28,33,29,23,98,84,58,29.96,29.66,6,2,0,0.00
2013-3-25,43,38,32,32,30,27,98,73,58,29.68,29.58,6,3,0,0.00
2013-3-26,50,41,32,33,30,26,98,65,43,29.88,29.68,8,3,0,0.00
2013-3-27,45,38,32,40,36,32,98,92,68,30.00,29.87,9,4,0,0.00
2013-3-28,45,38,32,42,35,30,98,89,58,30.14,29.99,8,2,0,0.00
2013-3-29,54,45,34,38,33,30,98,64,43,30.14,30.07,9,2,0,0.00
2013-3-30,59,46,28,35,29,24,98,55,36,30.13,29.91,5,1,0,0.00
2013-3-31,52,46,41,50,44,29,98,94,61,29.91,29.50,5,2,0,0.00
2013-4-7,43,43,43,41,39,37,93,86,81,29.88,29.85,7,5,0,0.01
2013-4-10,43,42,39,42,41,39,98,98,98,30.00,29.83,7,4,0,0.52
2013-4-11,37,32,32,37,32,32,98,98,98,30.06,29.88,9,4,0,0.00
2013-4-12,41,37,32,40,36,32,98,98,98,29.86,29.47,11,2,0,0.77
2013-4-13,43,39,36,42,38,35,98,98,98,29.82,29.65,5,2,0,0.06
2013-4-14,48,42,36,40,35,32,98,79,57,30.08,29.82,8,2,0,0.87
2013-4-15,61,54,36,51,46,35,98,77,63,30.06,29.91,5,1,0,0.00
2013-4-16,59,52,43,57,47,36,98,83,54,30.18,29.85,8,3,0,0.00
2013-4-17,61,50,41,44,39,34,98,67,49,30.31,30.15,7,2,0,0.05
2013-4-18,64,56,43,64,55,42,98,98,98,228.25,29.56,6,1,0,0.22
2013-4-19,63,48,41,62,43,34,98,84,69,29.59,29.23,11,6,0,0.60
2013-4-20,41,34,30,35,26,22,98,74,59,30.34,29.59,12,5,0,0.47
2013-4-21,50,41,30,38,28,20,98,61,42,30.60,30.34,6,1,0,0.44
2013-4-22,61,45,30,40,34,30,98,69,38,30.52,30.23,7,2,0,0.44
2013-4-23,59,50,39,45,40,33,96,68,51,30.22,29.81,5,1,0,0.00
2013-4-24,55,43,36,55,43,35,98,98,98,29.94,29.57,10,4,0,0.71
2013-4-25,52,44,34,45,39,33,98,86,52,30.23,29.94,8,2,0,0.00
2013-4-26,57,50,36,41,36,30,98,59,41,30.40,30.23,5,2,0,0.00
2013-4-28,54,51,50,53,51,50,98,98,98,29.93,29.91,3,2,0,0.17
2013-4-29,59,54,50,58,54,50,98,98,98,29.95,29.89,3,0,0,0.22
2013-4-30,72,62,52,71,62,51,98,98,88,30.10,29.94,3,1,0,0.00
2013-5-1,81,69,55,67,58,47,98,69,50,30.28,30.10,4,1,0,0.68
2013-5-2,64,54,50,53,48,42,98,83,49,30.32,30.23,3,0,0,0.00
2013-5-4,77,67,54,56,41,-32,98,44,21,30.20,30.10,5,1,0,0.00
2013-5-5,79,70,54,50,44,38,87,42,26,30.11,30.03,6,1,0,0.00
2013-5-6,79,62,46,53,29,-32,98,48,1,30.09,29.97,4,0,0,0.00
2013-5-7,70,59,52,46,41,37,63,52,37,30.05,29.98,2,0,0,0.00
2013-5-8,77,65,54,67,56,45,98,75,49,29.99,29.89,4,1,0,0.00
2013-5-9,81,67,59,69,57,45,98,75,31,29.89,29.82,3,0,0,0.00
2013-5-10,63,57,52,62,56,51,98,97,81,29.87,29.61,6,1,0,0.63
2013-5-11,61,53,45,58,51,44,98,94,72,29.69,29.60,7,2,0,0.01
2013-5-12,50,41,36,46,39,31,98,92,55,29.85,29.62,12,4,0,0.01
2013-5-13,52,42,34,42,32,19,98,70,38,30.06,29.86,9,3,0,0.00
2013-5-14,55,46,36,44,37,32,98,73,47,30.05,29.84,4,1,0,0.24
2013-5-15,46,45,45,46,44,40,98,97,77,29.83,29.61,3,0,0,0.00
2013-5-19,75,66,63,67,64,61,98,92,65,29.95,29.91,3,0,0,0.00
2013-5-20,86,75,61,74,69,60,98,82,62,29.94,29.79,8,1,0,0.16
2013-5-21,79,69,63,78,67,-39,98,97,98,29.83,29.67,5,0,0,1.28
2013-5-23,41,40,39,40,40,39,98,98,98,29.93,29.88,8,6,0,0.00
2013-5-24,52,45,37,44,39,37,98,81,60,30.17,29.95,8,5,0,0.00
2013-5-27,61,59,57,39,38,35,49,45,38,30.07,30.05,0,0,0,0.00
2013-5-28,59,54,50,58,50,37,98,88,50,30.07,29.84,5,0,0,0.68
2013-5-29,79,72,59,78,72,58,98,98,98,29.93,29.82,5,1,0,0.61
2013-5-30,88,82,68,79,73,67,98,75,57,30.03,29.94,5,1,0,1.64
2013-5-31,90,80,68,89,78,67,99,94,65,29.96,29.85,5,1,0,0.09
2013-6-1,68,67,66,67,67,66,98,98,98,29.84,29.79,1,0,0,0.00
2013-6-2,50,50,50,50,50,50,98,98,98,29.85,29.82,4,2,0,0.00
2013-6-3,63,54,45,62,53,44,98,98,98,29.98,29.86,9,3,0,0.00
2013-6-4,72,58,45,71,57,44,98,98,98,30.13,29.98,6,2,0,0.00
2013-6-5,68,59,54,67,54,45,98,83,52,30.17,30.02,4,0,0,2.05
2013-6-6,61,56,52,58,52,45,98,87,61,30.04,29.80,7,1,0,0.12
2013-6-7,61,58,54,60,57,53,98,98,98,29.82,29.78,5,1,0,0.00
2013-6-8,70,62,55,68,61,55,98,97,84,30.01,29.79,4,1,0,0.00
2013-6-9,77,65,52,62,56,51,98,76,51,30.13,30.02,6,1,0,0.00
2013-6-10,63,62,59,62,61,58,98,97,84,30.06,29.65,3,0,0,1.21
2013-6-11,61,61,61,60,60,60,98,98,98,29.65,29.65,0,0,0,0.00
2013-6-14,70,64,59,58,56,52,98,74,65,29.97,29.90,5,2,0,0.05
2013-6-15,79,70,55,62,53,48,98,56,38,30.01,29.87,5,1,0,0.01
2013-6-16,79,70,63,78,69,62,98,96,77,29.78,29.64,10,2,0,0.62
2013-6-17,79,68,61,71,64,60,98,90,60,29.85,29.75,13,2,0,0.97
2013-6-20,70,66,61,60,54,52,98,68,53,30.17,30.14,0,0,0,0.00
2013-6-21,81,73,59,67,57,52,98,60,40,30.21,30.10,4,1,0,0.00
2013-6-22,79,75,70,78,74,69,98,98,98,30.02,29.93,3,0,0,0.40
2013-6-23,91,82,70,80,76,69,98,84,54,30.00,29.90,4,0,0,0.60
2013-6-24,90,83,73,85,78,71,98,86,57,29.96,29.84,4,1,0,0.00
2013-6-25,81,76,72,80,75,71,98,98,98,29.83,29.79,3,1,0,0.05
2013-6-26,79,76,73,73,70,65,98,85,63,29.74,29.71,0,0,0,0.00
2013-6-27,77,72,68,76,71,67,98,98,98,29.73,29.60,2,0,0,0.00
2013-6-28,70,67,63,69,67,62,98,98,98,29.59,29.44,4,0,0,0.37
2013-6-29,79,67,63,75,65,61,98,95,56,29.64,29.45,7,1,0,0.00
2013-7-1,73,70,64,57,54,51,69,56,47,30.05,29.97,5,2,0,0.00
2013-7-2,81,69,63,71,63,53,98,84,57,30.05,29.99,4,0,0,0.00
2013-7-3,88,75,63,83,73,62,98,94,66,30.11,30.03,4,0,0,0.00
2013-7-4,90,78,70,86,76,69,98,95,65,30.15,30.03,3,0,0,0.22
2013-7-5,73,73,72,73,72,71,98,98,98,30.07,30.05,0,0,0,0.04
2013-7-6,81,79,77,80,78,76,98,98,98,29.99,29.96,0,0,0,0.00
2013-7-7,82,74,70,82,73,69,98,98,98,29.94,29.87,7,1,0,1.63
2013-7-8,86,73,68,76,47,-30,98,75,1,29.99,29.90,10,0,0,1.54
2013-7-9,77,72,68,76,72,67,98,98,98,29.97,29.82,1,0,0,0.16
2013-7-10,88,78,64,87,7,-38,98,32,1,29.83,29.65,13,2,0,0.01
2013-7-11,81,71,63,71,-22,-39,98,10,1,30.00,29.80,6,3,0,0.00
2013-7-12,82,72,63,80,-13,-39,98,16,1,30.13,30.00,4,1,0,0.00
2013-7-13,88,73,61,76,-10,-39,98,18,1,30.20,30.13,4,0,0,0.00
2013-7-14,93,77,64,84,6,-36,98,31,1,30.26,30.19,3,0,0,0.00
2013-7-15,97,86,77,85,-16,-31,98,8,1,30.27,30.19,4,0,0,0.00
2013-7-16,95,83,73,84,-16,-33,98,9,1,30.25,30.15,5,0,0,0.00
2013-7-17,93,84,75,91,16,-31,98,32,1,30.17,30.04,8,1,0,0.00
2013-7-18,91,86,79,89,8,-30,98,25,1,30.05,29.86,6,1,0,0.00
2013-7-19,86,82,79,78,-8,-28,98,13,1,29.85,29.75,4,1,0,0.00
2013-7-21,72,68,64,36,-30,-38,31,3,1,29.95,29.92,2,0,0,0.00
2013-7-22,75,70,61,75,4,-39,98,35,1,29.96,29.73,4,0,0,0.00
2013-7-23,66,65,64,-37,-38,-38,1,1,1,29.73,29.69,0,0,0,0.00
2013-7-25,66,64,63,62,-17,-39,97,20,1,30.08,30.06,0,0,0,0.00
2013-7-26,79,69,61,64,-30,-40,98,6,1,30.07,29.94,3,0,0,0.00
2013-7-27,73,68,64,71,24,-38,98,52,1,29.94,29.70,3,0,0,0.24
2013-7-28,75,64,57,67,20,-42,98,55,1,29.90,29.69,4,1,0,0.02
2013-7-29,73,64,55,71,-10,-40,98,25,1,30.08,29.89,4,0,0,0.00
2013-7-30,77,67,57,71,-5,-42,98,28,1,30.15,30.08,6,1,0,0.00
2013-8-2,63,63,63,62,62,62,98,98,98,29.76,29.73,4,1,0,0.00
2013-8-3,77,67,59,64,-6,-40,98,29,1,29.91,29.77,10,4,0,0.00
2013-8-4,73,63,57,66,-7,-42,98,31,1,30.03,29.90,12,3,0,0.00
2013-8-5,61,55,54,55,14,-44,98,55,1,30.05,30.02,2,0,0,0.00
2013-8-9,70,68,68,-35,-36,-36,1,1,1,29.86,29.85,0,0,0,0.00
2013-8-10,77,68,59,67,-32,-42,98,4,1,30.05,29.89,7,2,0,0.00
2013-8-11,77,65,54,69,-35,-45,98,4,1,30.08,29.97,4,0,0,0.00
2013-8-12,79,67,57,73,7,-42,98,36,1,30.00,29.78,3,0,0,0.01
2013-8-13,68,63,55,64,0,-44,98,38,1,29.84,29.70,12,4,0,0.00
2013-8-18,68,68,68,-36,-36,-36,1,1,1,30.06,30.06,0,0,0,0.00
2013-8-19,91,76,59,66,-23,-42,93,6,1,30.05,29.96,2,0,0,0.29
2013-8-20,68,64,63,62,11,-39,98,44,1,30.05,29.99,0,0,0,0.00
2013-8-21,73,72,72,73,-3,-34,98,29,1,29.97,29.95,0,0,0,0.00
2013-8-22,84,75,68,80,-27,-36,98,4,1,29.97,29.87,11,2,0,0.00
2013-8-23,81,70,63,67,-20,-39,98,13,1,30.16,29.97,5,1,0,0.00
2013-8-24,86,69,55,64,-20,-43,98,13,1,30.31,30.16,4,0,0,0.00
2013-8-25,88,73,57,73,-29,-43,98,4,1,30.27,30.04,3,0,0,0.00
2013-8-26,73,72,70,71,8,-34,98,40,1,30.03,29.88,2,0,0,0.01
2013-8-27,70,70,70,69,69,69,98,98,98,29.89,29.88,0,0,0,0.00
2013-8-31,81,71,70,80,12,-35,98,38,1,29.80,29.74,0,0,0,0.04
2013-9-1,81,72,68,69,24,-34,98,54,1,29.80,29.70,4,0,0,0.00
2013-9-2,75,68,61,69,-25,-40,98,10,1,29.74,29.65,12,4,0,0.02
2013-9-3,72,64,57,66,-28,-43,92,8,1,29.89,29.73,10,3,0,0.00
2013-9-4,81,65,54,71,-12,-44,98,22,1,29.97,29.88,8,1,0,0.00
2013-9-5,64,57,50,60,-35,-47,98,6,1,30.20,29.95,11,3,0,0.00
2013-9-6,81,59,45,60,14,-50,98,34,1,30.24,30.02,2,0,0,0.00
2013-9-7,70,62,59,69,61,19,98,96,83,30.02,29.81,2,0,0,2.35
2013-9-8,73,64,55,66,56,-40,98,81,1,30.06,29.81,7,1,0,0.00
2013-9-9,77,60,50,67,52,-44,98,85,1,30.08,29.88,3,0,0,0.00
2013-9-10,100,76,63,84,64,-30,98,81,1,29.89,29.80,4,0,0,0.00
2013-9-13,50,50,50,45,45,44,84,83,81,30.02,30.01,4,2,0,0.00
2013-9-14,75,54,41,55,47,40,98,79,40,30.09,30.00,5,2,0,0.00
2013-9-15,64,59,50,63,56,50,98,93,78,30.06,29.98,4,0,0,0.00
2013-9-20,72,71,68,71,70,67,98,98,98,29.69,29.66,0,0,0,0.91
2013-9-21,68,61,50,67,60,50,98,98,97,29.69,29.57,7,1,0,3.17
2013-9-22,55,50,48,51,-11,-47,98,35,1,30.00,29.69,8,2,0,0.00
2013-9-23,64,53,46,50,-42,-49,98,3,1,30.11,30.00,4,1,0,0.00
2013-9-24,64,50,43,51,-3,-50,98,44,1,30.11,30.02,4,0,0,0.00
2013-9-27,72,60,54,62,-3,-44,98,37,1,30.21,30.18,2,0,0,0.00
2013-9-28,73,63,54,67,40,-39,98,73,1,30.23,30.07,3,1,0,0.10
2013-9-29,72,64,54,69,16,-40,98,53,1,30.07,29.92,2,0,0,0.15
2013-9-30,68,63,63,67,63,62,98,98,98,29.93,29.89,2,0,0,0.34
2013-10-4,59,59,59,58,58,58,98,98,98,30.02,30.02,0,0,0,0.00
2013-10-5,61,59,59,58,-8,-42,98,33,1,30.02,29.97,0,0,0,0.14
2013-10-6,66,63,59,66,46,-42,98,82,1,29.97,29.60,3,0,0,0.14
2013-10-7,64,52,46,64,36,-44,98,80,1,29.99,29.59,5,1,0,0.78
2013-10-8,61,52,45,55,20,-45,98,64,1,30.25,29.99,3,1,0,0.02
2013-10-9,50,50,50,50,50,50,98,98,98,30.23,30.22,0,0,0,0.00
2013-10-10,72,56,46,58,6,-47,98,49,1,30.22,30.11,3,0,0,0.00
2013-10-11,73,55,43,56,7,-51,98,41,1,30.13,30.07,2,0,0,0.00
2013-10-12,73,56,45,65,53,19,98,87,58,30.13,30.07,3,0,0,0.00
2013-10-13,63,58,52,62,58,51,98,98,98,30.24,30.08,7,0,0,0.42
2013-10-14,64,54,46,60,-1,-47,98,43,1,30.30,30.22,5,1,0,0.00
2013-10-15,64,55,43,64,16,-49,98,56,1,30.24,29.84,4,0,0,0.00
2013-10-16,63,61,61,62,60,60,98,98,98,29.83,29.75,0,0,0,0.55